createdAt,value
2022-12-14T00:00:58.696Z,-14.85
2022-12-14T00:03:25.478Z,-14.95
2022-12-14T00:05:52.041Z,-14.84
2022-12-14T00:08:18.609Z,-14.94
2022-12-14T00:10:45.133Z,-15.10
2022-12-14T00:13:14.760Z,-15.18
2022-12-14T00:15:42.401Z,-15.23
2022-12-14T00:18:10.884Z,-15.27
2022-12-14T00:20:37.389Z,-15.64
2022-12-14T00:23:04.548Z,-15.65
2022-12-14T00:25:30.983Z,-15.32
2022-12-14T00:27:57.451Z,-15.14
2022-12-14T00:30:23.933Z,-15.15
2022-12-14T00:32:50.465Z,-15.20
2022-12-14T00:35:17.812Z,-15.04
2022-12-14T00:37:44.716Z,-14.30
2022-12-14T00:40:15.638Z,-14.11
2022-12-14T00:42:42.109Z,-14.05
2022-12-14T00:45:08.890Z,-14.10
2022-12-14T00:47:40.586Z,-13.99
2022-12-14T00:50:07.680Z,-13.85
2022-12-14T00:52:34.175Z,-14.07
2022-12-14T00:55:00.722Z,-14.00
2022-12-14T00:57:28.663Z,-13.80
2022-12-14T00:59:55.166Z,-14.19
2022-12-14T01:02:22.358Z,-14.57
2022-12-14T01:04:48.878Z,-14.73
2022-12-14T01:07:15.397Z,-14.85
2022-12-14T01:09:45.117Z,-14.85
2022-12-14T01:12:12.186Z,-14.81
2022-12-14T01:14:39.167Z,-14.58
2022-12-14T01:17:07.092Z,-14.35
2022-12-14T01:19:36.652Z,-14.35
2022-12-14T01:22:03.152Z,-14.13
2022-12-14T01:24:29.612Z,-13.86
2022-12-14T01:26:56.072Z,-13.82
2022-12-14T01:29:22.546Z,-14.12
2022-12-14T01:31:49.116Z,-13.87
2022-12-14T01:34:15.728Z,-14.83
2022-12-14T01:36:42.202Z,-15.45
2022-12-14T01:39:13.596Z,-15.49
2022-12-14T01:41:40.231Z,-15.75
2022-12-14T01:44:10.124Z,-16.01
2022-12-14T01:46:45.721Z,-15.65
2022-12-14T01:49:21.221Z,-15.41
2022-12-14T01:51:54.668Z,-14.82
2022-12-14T01:54:21.261Z,-14.55
2022-12-14T01:56:48.398Z,-14.74
2022-12-14T01:59:17.226Z,-15.21
2022-12-14T02:01:43.820Z,-15.17
2022-12-14T02:04:11.288Z,-15.25
2022-12-14T02:06:39.513Z,-15.19
2022-12-14T02:09:08.347Z,-15.10
2022-12-14T02:11:49.366Z,-15.67
2022-12-14T02:14:15.907Z,-15.85
2022-12-14T02:16:43.195Z,-15.93
2022-12-14T02:19:09.790Z,-15.60
2022-12-14T02:21:48.072Z,-15.19
2022-12-14T02:24:23.443Z,-14.74
2022-12-14T02:27:06.677Z,-14.23
2022-12-14T02:29:48.517Z,-14.07
2022-12-14T02:32:14.930Z,-14.63
2022-12-14T02:34:47.282Z,-14.77
2022-12-14T02:37:22.568Z,-14.66
2022-12-14T02:40:01.060Z,-15.04
2022-12-14T02:42:46.325Z,-15.41
2022-12-14T02:45:35.288Z,-15.85
2022-12-14T02:48:06.501Z,-16.10
2022-12-14T02:50:48.613Z,-16.28
2022-12-14T02:53:24.442Z,-16.26
2022-12-14T02:55:52.256Z,-15.46
2022-12-14T02:58:38.970Z,-15.34
2022-12-14T03:01:08.388Z,-15.27
2022-12-14T03:03:35.001Z,-16.02
2022-12-14T03:06:04.140Z,-16.34
2022-12-14T03:08:34.931Z,-16.15
2022-12-14T03:11:04.135Z,-15.75
2022-12-14T03:13:31.115Z,-15.27
2022-12-14T03:16:21.741Z,-15.00
2022-12-14T03:19:01.698Z,-15.29
2022-12-14T03:21:32.106Z,-15.02
2022-12-14T03:24:01.423Z,-14.99
2022-12-14T03:26:33.066Z,-14.93
2022-12-14T03:29:15.618Z,-14.78
2022-12-14T03:31:48.989Z,-14.47
2022-12-14T03:34:17.555Z,-14.35
2022-12-14T03:37:02.724Z,-14.49
2022-12-14T03:39:32.882Z,-14.39
2022-12-14T03:42:05.362Z,-14.27
2022-12-14T03:44:40.397Z,-14.08
2022-12-14T03:47:26.488Z,-14.08
2022-12-14T03:49:58.973Z,-14.13
2022-12-14T03:52:28.280Z,-14.69
2022-12-14T03:54:54.703Z,-14.79
2022-12-14T03:57:35.126Z,-15.43
2022-12-14T04:00:04.473Z,-15.89
2022-12-14T04:02:41.154Z,-16.12
2022-12-14T04:05:16.309Z,-16.35
2022-12-14T04:08:01.277Z,-16.18
2022-12-14T04:10:50.122Z,-15.86
2022-12-14T04:13:38.271Z,-16.09
2022-12-14T04:16:28.021Z,-16.28
2022-12-14T04:19:00.301Z,-16.22
2022-12-14T04:21:48.006Z,-15.99
2022-12-14T04:24:53.284Z,-15.80
2022-12-14T04:27:23.976Z,-15.51
2022-12-14T04:29:59.199Z,-15.82
2022-12-14T04:32:25.670Z,-16.06
2022-12-14T04:34:55.074Z,-16.09
2022-12-14T04:37:22.605Z,-16.14
2022-12-14T04:39:52.140Z,-16.15
2022-12-14T04:42:21.289Z,-16.14
2022-12-14T04:44:50.461Z,-16.13
2022-12-14T04:47:20.298Z,-16.00
2022-12-14T04:49:46.871Z,-15.81
2022-12-14T04:52:30.533Z,-15.64
2022-12-14T04:55:01.184Z,-15.58
2022-12-14T04:57:33.848Z,-15.21
2022-12-14T05:00:00.946Z,-15.05
2022-12-14T05:02:42.936Z,-14.89
2022-12-14T05:05:12.590Z,-14.89
2022-12-14T05:08:02.754Z,-14.99
2022-12-14T05:10:41.504Z,-14.98
2022-12-14T05:13:22.766Z,-15.90
2022-12-14T05:15:54.083Z,-16.35
2022-12-14T05:18:23.113Z,-16.64
2022-12-14T05:20:50.090Z,-16.76
2022-12-14T05:23:16.963Z,-16.90
2022-12-14T05:25:43.758Z,-16.86
2022-12-14T05:28:11.205Z,-16.73
2022-12-14T05:30:38.132Z,-16.34
2022-12-14T05:33:04.689Z,-15.82
2022-12-14T05:35:33.279Z,-16.33
2022-12-14T05:38:00.105Z,-15.97
2022-12-14T05:40:26.645Z,-16.01
2022-12-14T05:43:02.909Z,-16.57
2022-12-14T05:45:29.373Z,-15.84
2022-12-14T05:47:55.810Z,-15.38
2022-12-14T05:50:22.282Z,-15.53
2022-12-14T05:52:50.835Z,-16.14
2022-12-14T05:55:17.450Z,-16.29
2022-12-14T05:57:43.892Z,-16.30
2022-12-14T06:00:12.910Z,-16.28
2022-12-14T06:02:39.433Z,-16.27
2022-12-14T06:05:05.999Z,-16.11
2022-12-14T06:07:32.484Z,-15.77
2022-12-14T06:09:58.986Z,-15.78
2022-12-14T06:12:26.214Z,-16.02
2022-12-14T06:14:53.466Z,-15.74
2022-12-14T06:17:20.597Z,-15.21
2022-12-14T06:19:49.931Z,-14.90
2022-12-14T06:22:16.821Z,-14.84
2022-12-14T06:24:45.762Z,-14.70
2022-12-14T06:27:12.230Z,-14.49
2022-12-14T06:29:38.670Z,-14.78
2022-12-14T06:32:05.302Z,-15.48
2022-12-14T06:34:35.374Z,-16.02
2022-12-14T06:37:06.327Z,-16.12
2022-12-14T06:39:32.889Z,-16.27
2022-12-14T06:41:59.363Z,-16.10
2022-12-14T06:44:25.912Z,-16.38
2022-12-14T06:46:54.699Z,-16.49
2022-12-14T06:49:23.779Z,-16.63
2022-12-14T06:51:50.387Z,-16.74
2022-12-14T06:54:17.283Z,-16.54
2022-12-14T06:56:44.741Z,-16.26
2022-12-14T06:59:11.976Z,-15.91
2022-12-14T07:01:39.222Z,-16.24
2022-12-14T07:04:06.615Z,-16.89
2022-12-14T07:06:34.703Z,-17.07
2022-12-14T07:09:01.700Z,-17.05
2022-12-14T07:11:31.295Z,-16.99
2022-12-14T07:14:00.709Z,-17.02
2022-12-14T07:16:29.551Z,-17.26
2022-12-14T07:18:57.262Z,-17.20
2022-12-14T07:21:24.610Z,-17.22
2022-12-14T07:23:56.058Z,-16.88
2022-12-14T07:26:23.555Z,-16.14
2022-12-14T07:28:50.778Z,-15.79
2022-12-14T07:31:25.427Z,-15.95
2022-12-14T07:33:52.620Z,-16.40
2022-12-14T07:36:20.213Z,-15.97
2022-12-14T07:38:48.324Z,-15.74
2022-12-14T07:41:21.811Z,-15.54
2022-12-14T07:43:49.767Z,-16.56
2022-12-14T07:46:18.221Z,-17.02
2022-12-14T07:48:47.649Z,-17.11
2022-12-14T07:51:15.488Z,-16.26
2022-12-14T07:53:41.997Z,-15.92
2022-12-14T07:56:09.638Z,-16.33
2022-12-14T07:58:36.487Z,-16.86
2022-12-14T08:01:11.337Z,-16.99
2022-12-14T08:03:38.638Z,-17.29
2022-12-14T08:06:05.726Z,-17.54
2022-12-14T08:08:33.013Z,-17.08
2022-12-14T08:10:59.743Z,-16.53
2022-12-14T08:13:26.613Z,-16.83
2022-12-14T08:15:54.108Z,-16.73
2022-12-14T08:18:21.601Z,-16.92
2022-12-14T08:20:54.414Z,-17.05
2022-12-14T08:23:21.377Z,-17.50
2022-12-14T08:25:52.606Z,-17.79
2022-12-14T08:28:19.046Z,-17.20
2022-12-14T08:30:45.687Z,-17.53
2022-12-14T08:33:12.736Z,-17.78
2022-12-14T08:35:39.234Z,-17.86
2022-12-14T08:38:05.726Z,-17.08
2022-12-14T08:40:34.465Z,-17.13
2022-12-14T08:43:00.927Z,-17.59
2022-12-14T08:45:27.465Z,-16.68
2022-12-14T08:47:56.717Z,-16.32
2022-12-14T08:50:23.162Z,-16.17
2022-12-14T08:52:49.705Z,-16.45
2022-12-14T08:55:16.291Z,-16.53
2022-12-14T08:57:42.863Z,-17.39
2022-12-14T09:00:10.388Z,-17.45
2022-12-14T09:02:37.003Z,-17.48
2022-12-14T09:05:03.866Z,-17.85
2022-12-14T09:07:30.711Z,-17.99
2022-12-14T09:09:57.224Z,-18.07
2022-12-14T09:12:23.874Z,-18.16
2022-12-14T09:14:51.430Z,-18.06
2022-12-14T09:17:19.397Z,-17.62
2022-12-14T09:19:46.038Z,-17.58
2022-12-14T09:22:14.059Z,-17.39
2022-12-14T09:24:40.550Z,-16.83
2022-12-14T09:27:09.066Z,-16.64
2022-12-14T09:29:35.615Z,-16.30
2022-12-14T09:32:02.145Z,-16.03
2022-12-14T09:34:29.304Z,-16.49
2022-12-14T09:36:55.738Z,-16.94
2022-12-14T09:39:22.187Z,-17.38
2022-12-14T09:42:00.763Z,-17.38
2022-12-14T09:44:33.598Z,-16.76
2022-12-14T09:47:00.005Z,-16.18
2022-12-14T09:49:31.154Z,-15.92
2022-12-14T09:52:00.301Z,-15.52
2022-12-14T09:54:29.344Z,-15.99
2022-12-14T09:56:57.853Z,-16.63
2022-12-14T09:59:26.631Z,-17.04
2022-12-14T10:02:31.044Z,-17.26
2022-12-14T10:05:06.413Z,-17.42
2022-12-14T10:07:50.195Z,-17.59
2022-12-14T10:10:39.721Z,-17.65
2022-12-14T10:13:15.466Z,-17.49
2022-12-14T10:15:50.226Z,-16.79
2022-12-14T10:18:57.136Z,-16.28
2022-12-14T10:21:15.252Z,-16.18
2022-12-14T10:23:45.695Z,-16.83
2022-12-14T10:26:18.563Z,-17.02
2022-12-14T10:29:00.940Z,-17.26
2022-12-14T10:31:31.213Z,-17.39
2022-12-14T10:33:59.930Z,-17.35
2022-12-14T10:36:28.375Z,-17.16
2022-12-14T10:38:54.846Z,-16.95
2022-12-14T10:41:21.264Z,-17.09
2022-12-14T10:44:06.528Z,-17.32
2022-12-14T10:46:35.908Z,-17.35
2022-12-14T10:49:05.194Z,-17.38
2022-12-14T10:51:37.299Z,-17.33
2022-12-14T10:54:17.762Z,-17.05
2022-12-14T10:56:49.808Z,-16.44
2022-12-14T10:59:32.220Z,-16.48
2022-12-14T11:02:17.736Z,-16.62
2022-12-14T11:04:49.481Z,-16.25
2022-12-14T11:07:16.887Z,-15.62
2022-12-14T11:09:43.967Z,-15.77
2022-12-14T11:12:13.266Z,-15.68
2022-12-14T11:15:00.732Z,-15.75
2022-12-14T11:17:41.744Z,-15.75
2022-12-14T11:20:20.674Z,-15.62
2022-12-14T11:22:57.459Z,-15.33
2022-12-14T11:25:28.746Z,-15.07
2022-12-14T11:27:55.919Z,-15.00
2022-12-14T11:30:22.374Z,-14.89
2022-12-14T11:32:49.231Z,-14.75
2022-12-14T11:35:17.435Z,-14.71
2022-12-14T11:37:43.919Z,-15.08
2022-12-14T11:40:18.934Z,-15.20
2022-12-14T11:42:52.735Z,-15.29
2022-12-14T11:45:19.192Z,-15.30
2022-12-14T11:47:45.684Z,-14.78
2022-12-14T11:50:25.246Z,-14.35
2022-12-14T11:52:51.716Z,-14.15
2022-12-14T11:55:26.697Z,-14.01
2022-12-14T11:57:59.980Z,-14.55
2022-12-14T12:00:26.653Z,-14.89
2022-12-14T12:03:11.959Z,-14.71
2022-12-14T12:05:40.505Z,-14.51
2022-12-14T12:08:17.526Z,-14.68
2022-12-14T12:10:50.026Z,-14.55
2022-12-14T12:13:21.394Z,-14.34
2022-12-14T12:15:53.611Z,-14.15
2022-12-14T12:18:20.770Z,-14.10
2022-12-14T12:20:47.268Z,-13.91
2022-12-14T12:23:18.108Z,-13.95
2022-12-14T12:25:48.099Z,-14.20
2022-12-14T12:28:20.082Z,-14.41
2022-12-14T12:30:49.948Z,-14.43
2022-12-14T12:33:36.698Z,-14.14
2022-12-14T12:36:04.637Z,-14.09
2022-12-14T12:38:31.397Z,-14.18
2022-12-14T12:41:06.159Z,-14.22
2022-12-14T12:43:39.505Z,-14.06
2022-12-14T12:46:17.095Z,-13.83
2022-12-14T12:48:46.799Z,-13.75
2022-12-14T12:51:19.530Z,-13.83
2022-12-14T12:53:48.097Z,-13.65
2022-12-14T12:56:21.701Z,-13.78
2022-12-14T12:58:52.817Z,-14.80
2022-12-14T13:01:34.616Z,-15.81
2022-12-14T13:04:03.214Z,-16.35
2022-12-14T13:06:40.595Z,-16.45
2022-12-14T13:09:16.787Z,-16.08
2022-12-14T13:11:43.998Z,-15.96
2022-12-14T13:14:34.693Z,-16.01
2022-12-14T13:17:04.611Z,-15.65
2022-12-14T13:19:50.388Z,-15.61
2022-12-14T13:22:22.758Z,-15.50
2022-12-14T13:24:58.951Z,-15.25
2022-12-14T13:27:44.053Z,-15.09
2022-12-14T13:30:21.954Z,-15.36
2022-12-14T13:32:51.665Z,-15.11
2022-12-14T13:35:36.698Z,-14.76
2022-12-14T13:38:21.437Z,-14.70
2022-12-14T13:41:00.090Z,-14.73
2022-12-14T13:43:41.538Z,-14.69
2022-12-14T13:46:16.535Z,-16.18
2022-12-14T13:48:44.351Z,-15.89
2022-12-14T13:51:20.506Z,-15.62
2022-12-14T13:53:50.529Z,-15.32
2022-12-14T13:56:26.451Z,-15.21
2022-12-14T13:59:00.253Z,-15.30
2022-12-14T14:01:45.921Z,-15.89
2022-12-14T14:04:15.280Z,-15.77
2022-12-14T14:06:41.902Z,-15.54
2022-12-14T14:09:26.567Z,-16.15
2022-12-14T14:11:56.628Z,-15.91
2022-12-14T14:14:23.130Z,-16.46
2022-12-14T14:17:01.764Z,-17.25
2022-12-14T14:19:35.014Z,-17.58
2022-12-14T14:22:26.573Z,-17.45
2022-12-14T14:24:57.282Z,-17.05
2022-12-14T14:27:25.433Z,-16.54
2022-12-14T14:29:52.958Z,-16.28
2022-12-14T14:32:34.470Z,-16.58
2022-12-14T14:35:02.899Z,-16.52
2022-12-14T14:37:34.071Z,-16.45
2022-12-14T14:40:16.844Z,-16.84
2022-12-14T14:42:51.950Z,-17.39
2022-12-14T14:45:39.073Z,-17.42
2022-12-14T14:48:10.304Z,-17.09
2022-12-14T14:50:38.371Z,-17.07
2022-12-14T14:53:12.818Z,-17.24
2022-12-14T14:55:55.180Z,-16.64
2022-12-14T14:58:32.476Z,-16.79
2022-12-14T15:01:01.283Z,-16.29
2022-12-14T15:03:51.137Z,-16.92
2022-12-14T15:06:21.314Z,-17.27
2022-12-14T15:08:55.845Z,-17.75
2022-12-14T15:11:23.265Z,-17.90
2022-12-14T15:13:59.462Z,-18.18
2022-12-14T15:16:29.525Z,-18.11
2022-12-14T15:19:12.447Z,-18.01
2022-12-14T15:21:39.346Z,-17.65
2022-12-14T15:24:05.994Z,-17.61
2022-12-14T15:26:33.898Z,-17.97
2022-12-14T15:29:01.004Z,-18.27
2022-12-14T15:31:29.241Z,-18.35
2022-12-14T15:33:59.071Z,-18.44
2022-12-14T15:36:29.469Z,-18.34
2022-12-14T15:38:56.590Z,-18.29
2022-12-14T15:41:25.073Z,-17.99
2022-12-14T15:43:55.077Z,-17.77
2022-12-14T15:46:31.366Z,-17.54
2022-12-14T15:48:59.194Z,-16.76
2022-12-14T15:51:39.470Z,-16.78
2022-12-14T15:54:07.149Z,-16.80
2022-12-14T15:56:38.446Z,-16.90
2022-12-14T15:59:13.415Z,-16.38
2022-12-14T16:01:44.936Z,-16.06
2022-12-14T16:04:23.375Z,-16.02
2022-12-14T16:06:53.457Z,-16.01
2022-12-14T16:09:32.184Z,-15.82
2022-12-14T16:12:05.333Z,-16.04
2022-12-14T16:14:45.682Z,-15.57
2022-12-14T16:17:14.228Z,-15.67
2022-12-14T16:19:58.754Z,-15.67
2022-12-14T16:22:32.518Z,-15.63
2022-12-14T16:25:01.722Z,-15.39
2022-12-14T16:27:29.086Z,-15.39
2022-12-14T16:30:14.402Z,-15.79
2022-12-14T16:32:40.915Z,-15.87
2022-12-14T16:35:15.566Z,-15.48
2022-12-14T16:37:44.823Z,-15.42
2022-12-14T16:40:24.519Z,-15.04
2022-12-14T16:42:53.150Z,-15.21
2022-12-14T16:45:42.775Z,-15.16
2022-12-14T16:48:17.159Z,-15.04
2022-12-14T16:51:06.527Z,-15.64
2022-12-14T16:53:30.760Z,-16.98
2022-12-14T16:56:14.422Z,-17.57
2022-12-14T16:58:40.884Z,-17.80
2022-12-14T17:01:09.546Z,-17.18
2022-12-14T17:03:37.156Z,-16.90
2022-12-14T17:06:05.582Z,-17.65
2022-12-14T17:08:33.565Z,-18.01
2022-12-14T17:11:00.322Z,-17.80
2022-12-14T17:13:26.876Z,-17.67
2022-12-14T17:15:54.759Z,-17.48
2022-12-14T17:18:22.434Z,-17.50
2022-12-14T17:20:48.932Z,-17.51
2022-12-14T17:23:16.719Z,-17.54
2022-12-14T17:25:47.922Z,-17.88
2022-12-14T17:28:20.715Z,-17.64
2022-12-14T17:30:50.661Z,-17.87
2022-12-14T17:33:17.233Z,-17.75
2022-12-14T17:35:43.674Z,-17.72
2022-12-14T17:38:15.202Z,-17.88
2022-12-14T17:40:42.363Z,-17.26
2022-12-14T17:43:13.858Z,-17.08
2022-12-14T17:45:40.351Z,-17.44
2022-12-14T17:48:09.686Z,-17.86
2022-12-14T17:50:36.322Z,-17.89
2022-12-14T17:53:02.782Z,-17.84
2022-12-14T17:55:29.509Z,-17.74
2022-12-14T17:57:56.336Z,-17.49
2022-12-14T18:00:42.519Z,-16.94
2022-12-14T18:03:10.365Z,-16.57
2022-12-14T18:05:37.404Z,-16.95
2022-12-14T18:08:04.050Z,-17.04
2022-12-14T18:10:30.602Z,-16.73
2022-12-14T18:12:57.432Z,-17.42
2022-12-14T18:15:31.520Z,-17.73
2022-12-14T18:17:59.317Z,-17.42
2022-12-14T18:20:26.065Z,-17.73
2022-12-14T18:22:53.480Z,-17.56
2022-12-14T18:25:23.702Z,-17.78
2022-12-14T18:27:50.855Z,-18.11
2022-12-14T18:30:17.920Z,-18.35
2022-12-14T18:32:45.068Z,-18.09
2022-12-14T18:35:20.140Z,-18.01
2022-12-14T18:37:49.346Z,-17.47
2022-12-14T18:40:18.651Z,-16.70
2022-12-14T18:42:46.183Z,-16.59
2022-12-14T18:45:23.595Z,-16.69
2022-12-14T18:47:51.477Z,-16.59
2022-12-14T18:50:19.639Z,-17.35
2022-12-14T18:52:47.053Z,-17.70
2022-12-14T18:55:18.072Z,-17.16
2022-12-14T18:57:46.087Z,-17.09
2022-12-14T19:00:15.010Z,-16.80
2022-12-14T19:02:42.592Z,-17.01
2022-12-14T19:05:11.148Z,-17.43
2022-12-14T19:07:38.519Z,-16.76
2022-12-14T19:10:06.146Z,-16.50
2022-12-14T19:12:33.852Z,-16.58
2022-12-14T19:15:01.343Z,-16.86
2022-12-14T19:17:30.526Z,-16.87
2022-12-14T19:19:58.150Z,-16.68
2022-12-14T19:22:28.114Z,-16.32
2022-12-14T19:24:55.889Z,-16.19
2022-12-14T19:27:58.898Z,-15.99
2022-12-14T19:30:13.768Z,-16.28
2022-12-14T19:32:41.138Z,-15.64
2022-12-14T19:35:08.752Z,-15.33
2022-12-14T19:37:36.079Z,-16.28
2022-12-14T19:40:05.684Z,-16.92
2022-12-14T19:42:36.201Z,-17.21
2022-12-14T19:45:09.146Z,-17.39
2022-12-14T19:47:37.110Z,-17.50
2022-12-14T19:50:06.854Z,-17.52
2022-12-14T19:52:35.102Z,-17.52
2022-12-14T19:55:02.737Z,-17.20
2022-12-14T19:57:29.445Z,-16.60
2022-12-14T19:59:57.883Z,-16.26
2022-12-14T20:02:25.250Z,-16.52
2022-12-14T20:04:52.550Z,-16.82
2022-12-14T20:07:22.757Z,-16.90
2022-12-14T20:09:52.917Z,-16.95
2022-12-14T20:12:20.311Z,-16.94
2022-12-14T20:14:49.422Z,-16.97
2022-12-14T20:17:17.107Z,-16.95
2022-12-14T20:19:44.729Z,-16.90
2022-12-14T20:22:12.316Z,-16.66
2022-12-14T20:24:39.747Z,-16.40
2022-12-14T20:27:06.305Z,-15.82
2022-12-14T20:29:33.115Z,-15.61
2022-12-14T20:32:00.405Z,-15.52
2022-12-14T20:34:30.086Z,-15.68
2022-12-14T20:36:59.852Z,-15.59
2022-12-14T20:39:27.174Z,-15.76
2022-12-14T20:41:54.269Z,-15.88
2022-12-14T20:44:20.907Z,-15.93
2022-12-14T20:46:48.005Z,-15.95
2022-12-14T20:49:16.418Z,-16.00
2022-12-14T20:51:43.604Z,-16.00
2022-12-14T20:54:17.537Z,-15.94
2022-12-14T20:56:44.494Z,-15.82
2022-12-14T20:59:15.818Z,-15.69
2022-12-14T21:01:42.780Z,-15.46
2022-12-14T21:04:09.910Z,-15.47
2022-12-14T21:06:37.833Z,-15.06
2022-12-14T21:09:10.329Z,-14.95
2022-12-14T21:12:04.533Z,-15.00
2022-12-14T21:14:35.708Z,-14.98
2022-12-14T21:17:03.985Z,-14.89
2022-12-14T21:19:32.282Z,-14.74
2022-12-14T21:21:58.847Z,-14.88
2022-12-14T21:27:15.999Z,-15.32
2022-12-14T21:29:42.704Z,-15.20
2022-12-14T21:32:09.233Z,-15.04
2022-12-14T21:34:35.801Z,-14.70
2022-12-14T21:37:02.358Z,-14.72
2022-12-14T21:39:28.833Z,-15.26
2022-12-14T21:42:15.408Z,-15.42
2022-12-14T21:44:43.244Z,-16.24
2022-12-14T21:47:14.192Z,-16.33
2022-12-14T21:49:42.031Z,-16.45
2022-12-14T21:52:09.669Z,-16.36
2022-12-14T21:54:36.498Z,-16.29
2022-12-14T21:57:21.385Z,-16.54
2022-12-14T21:59:47.862Z,-16.81
2022-12-14T22:02:16.242Z,-16.86
2022-12-14T22:04:46.840Z,-16.68
2022-12-14T22:07:17.670Z,-16.34
2022-12-14T22:09:44.183Z,-16.48
2022-12-14T22:12:16.963Z,-16.43
2022-12-14T22:14:43.398Z,-16.42
2022-12-14T22:17:12.049Z,-16.24
2022-12-14T22:19:38.483Z,-15.77
2022-12-14T22:22:05.808Z,-15.60
2022-12-14T22:24:32.283Z,-15.94
2022-12-14T22:26:59.411Z,-15.73
2022-12-14T22:29:26.428Z,-15.58
2022-12-14T22:31:52.992Z,-15.79
2022-12-14T22:34:21.760Z,-15.93
2022-12-14T22:36:49.538Z,-15.89
2022-12-14T22:39:16.895Z,-15.85
2022-12-14T22:41:43.450Z,-15.85
2022-12-14T22:44:11.103Z,-15.85
2022-12-14T22:46:39.898Z,-15.82
2022-12-14T22:49:06.799Z,-15.68
2022-12-14T22:51:33.471Z,-15.70
2022-12-14T22:53:59.980Z,-15.49
2022-12-14T22:56:45.861Z,-15.50
2022-12-14T22:59:28.703Z,-15.35
2022-12-14T23:01:55.318Z,-15.39
2022-12-14T23:04:21.913Z,-15.29
2022-12-14T23:06:48.451Z,-15.29
2022-12-14T23:09:33.511Z,-15.11
2022-12-14T23:12:21.633Z,-15.03
2022-12-14T23:15:06.789Z,-14.98
2022-12-14T23:17:52.507Z,-15.15
2022-12-14T23:20:37.413Z,-15.13
2022-12-14T23:23:25.885Z,-15.08
2022-12-14T23:26:10.749Z,-14.95
2022-12-14T23:28:55.579Z,-14.64
2022-12-14T23:31:40.501Z,-14.33
2022-12-14T23:34:25.346Z,-13.82
2022-12-14T23:37:13.705Z,-13.77
2022-12-14T23:40:01.501Z,-13.81
2022-12-14T23:42:46.253Z,-13.46
2022-12-14T23:45:31.054Z,-13.30
2022-12-14T23:48:16.111Z,-13.22
2022-12-14T23:51:00.983Z,-13.24
2022-12-14T23:53:46.028Z,-13.24
2022-12-14T23:56:35.589Z,-13.13
2022-12-14T23:59:22.698Z,-13.41
